createdAt,value
2018-12-11T00:00:31.023Z,86.70
2018-12-11T00:01:30.995Z,86.29
2018-12-11T00:02:30.985Z,86.39
2018-12-11T00:03:30.974Z,86.18
2018-12-11T00:04:30.963Z,86.15
2018-12-11T00:05:30.951Z,85.97
2018-12-11T00:06:30.946Z,86.15
2018-12-11T00:07:30.932Z,85.94
2018-12-11T00:08:30.920Z,85.66
2018-12-11T00:09:30.909Z,86.25
2018-12-11T00:10:30.899Z,86.04
2018-12-11T00:11:34.009Z,86.15
2018-12-11T00:12:30.876Z,86.25
2018-12-11T00:13:30.935Z,86.04
2018-12-11T00:14:30.857Z,85.14
2018-12-11T00:15:30.847Z,86.25
2018-12-11T00:16:30.834Z,85.63
2018-12-11T00:17:30.823Z,86.04
2018-12-11T00:18:30.813Z,86.18
2018-12-11T00:19:30.803Z,85.83
2018-12-11T00:20:30.793Z,85.94
2018-12-11T00:21:30.781Z,86.18
2018-12-11T00:22:30.774Z,85.83
2018-12-11T00:23:30.759Z,85.21
2018-12-11T00:24:30.748Z,85.56
2018-12-11T00:25:30.742Z,86.18
2018-12-11T00:26:30.728Z,86.15
2018-12-11T00:27:30.715Z,85.14
2018-12-11T00:28:30.706Z,86.15
2018-12-11T00:29:30.699Z,86.15
2018-12-11T00:30:30.686Z,85.35
2018-12-11T00:31:30.673Z,85.14
2018-12-11T00:32:30.662Z,85.00
2018-12-11T00:33:30.655Z,84.80
2018-12-11T00:34:30.705Z,84.69
2018-12-11T00:35:30.632Z,84.73
2018-12-11T00:36:30.619Z,84.94
2018-12-11T00:37:30.610Z,84.80
2018-12-11T00:38:30.598Z,85.04
2018-12-11T00:39:30.587Z,85.46
2018-12-11T00:40:30.578Z,85.35
2018-12-11T00:41:30.566Z,84.83
2018-12-11T00:42:30.562Z,84.73
2018-12-11T00:43:30.545Z,84.83
2018-12-11T00:44:30.534Z,84.94
2018-12-11T00:45:30.522Z,85.25
2018-12-11T00:46:30.513Z,85.14
2018-12-11T00:47:30.505Z,85.25
2018-12-11T00:48:30.491Z,85.04
2018-12-11T00:49:30.481Z,85.04
2018-12-11T00:50:30.469Z,86.18
2018-12-11T00:51:30.462Z,85.35
2018-12-11T00:52:30.454Z,85.46
2018-12-11T00:53:30.439Z,84.94
2018-12-11T00:54:30.430Z,85.04
2018-12-11T00:55:30.418Z,84.94
2018-12-11T00:56:30.409Z,85.14
2018-12-11T00:57:30.395Z,85.04
2018-12-11T00:58:30.383Z,84.73
2018-12-11T00:59:30.373Z,84.17
2018-12-11T01:00:30.362Z,85.04
2018-12-11T01:01:30.352Z,84.69
2018-12-11T01:02:30.342Z,84.90
2018-12-11T01:03:30.335Z,85.14
2018-12-11T01:04:30.323Z,85.31
2018-12-11T01:05:30.311Z,85.83
2018-12-11T01:06:30.299Z,86.04
2018-12-11T01:07:30.290Z,85.83
2018-12-11T01:08:30.277Z,86.04
2018-12-11T01:09:30.270Z,86.18
2018-12-11T01:10:30.256Z,85.35
2018-12-11T01:11:30.245Z,85.97
2018-12-11T01:12:30.234Z,85.87
2018-12-11T01:13:30.227Z,86.08
2018-12-11T01:14:30.212Z,86.04
2018-12-11T01:15:30.204Z,86.04
2018-12-11T01:16:30.192Z,86.25
2018-12-11T01:17:30.180Z,86.08
2018-12-11T01:18:30.170Z,85.94
2018-12-11T01:19:30.162Z,85.97
2018-12-11T01:20:30.149Z,85.52
2018-12-11T01:21:30.140Z,85.94
2018-12-11T01:22:30.127Z,85.94
2018-12-11T01:23:30.117Z,86.04
2018-12-11T01:24:30.107Z,86.15
2018-12-11T01:25:30.097Z,85.83
2018-12-11T01:26:30.097Z,86.35
2018-12-11T01:27:30.075Z,86.35
2018-12-11T01:28:30.063Z,85.97
2018-12-11T01:29:30.051Z,86.70
2018-12-11T01:30:30.041Z,86.76
2018-12-11T01:31:30.035Z,86.08
2018-12-11T01:32:30.024Z,86.80
2018-12-11T01:33:30.008Z,86.91
2018-12-11T01:34:30.001Z,86.39
2018-12-11T01:35:29.987Z,87.01
2018-12-11T01:36:29.976Z,87.32
2018-12-11T01:37:29.970Z,87.12
2018-12-11T01:38:29.954Z,87.12
2018-12-11T01:39:29.944Z,86.70
2018-12-11T01:40:29.996Z,86.60
2018-12-11T01:41:29.923Z,86.49
2018-12-11T01:42:29.913Z,86.39
2018-12-11T01:43:29.902Z,86.49
2018-12-11T01:44:29.894Z,86.29
2018-12-11T01:45:29.880Z,86.91
2018-12-11T01:46:29.871Z,86.60
2018-12-11T01:47:29.858Z,86.29
2018-12-11T01:48:29.848Z,86.91
2018-12-11T01:49:29.837Z,86.80
2018-12-11T01:50:29.827Z,86.80
2018-12-11T01:51:29.816Z,86.49
2018-12-11T01:52:29.807Z,86.29
2018-12-11T01:53:29.795Z,86.60
2018-12-11T01:54:29.787Z,86.49
2018-12-11T01:55:29.776Z,86.39
2018-12-11T01:56:29.762Z,86.49
2018-12-11T01:57:29.751Z,86.70
2018-12-11T01:58:29.740Z,86.91
2018-12-11T01:59:29.729Z,86.49
2018-12-11T02:00:29.719Z,87.12
2018-12-11T02:01:29.709Z,86.80
2018-12-11T02:02:29.697Z,86.60
2018-12-11T02:03:29.687Z,86.18
2018-12-11T02:04:29.679Z,86.45
2018-12-11T02:05:29.666Z,86.49
2018-12-11T02:06:29.656Z,85.73
2018-12-11T02:07:29.646Z,86.08
2018-12-11T02:08:29.635Z,86.35
2018-12-11T02:09:29.623Z,86.04
2018-12-11T02:10:29.614Z,87.01
2018-12-11T02:11:29.602Z,86.39
2018-12-11T02:12:29.591Z,86.25
2018-12-11T02:13:29.581Z,86.35
2018-12-11T02:14:29.571Z,86.25
2018-12-11T02:15:29.559Z,86.91
2018-12-11T02:16:29.550Z,86.55
2018-12-11T02:17:29.537Z,86.35
2018-12-11T02:18:29.528Z,86.66
2018-12-11T02:19:29.517Z,86.76
2018-12-11T02:20:29.507Z,87.01
2018-12-11T02:21:30.461Z,87.43
2018-12-11T02:22:29.484Z,87.74
2018-12-11T02:23:29.476Z,87.59
2018-12-11T02:24:29.467Z,87.59
2018-12-11T02:25:29.454Z,87.70
2018-12-11T02:26:29.441Z,87.49
2018-12-11T02:27:29.432Z,87.95
2018-12-11T02:28:29.421Z,87.95
2018-12-11T02:29:29.410Z,87.90
2018-12-11T02:30:29.400Z,87.49
2018-12-11T02:31:29.389Z,87.84
2018-12-11T02:32:29.378Z,87.84
2018-12-11T02:33:29.367Z,87.80
2018-12-11T02:34:29.360Z,87.84
2018-12-11T02:35:29.357Z,87.90
2018-12-11T02:36:29.337Z,87.90
2018-12-11T02:37:29.326Z,87.18
2018-12-11T02:38:29.313Z,86.60
2018-12-11T02:39:29.302Z,87.49
2018-12-11T02:40:29.293Z,87.59
2018-12-11T02:41:29.283Z,87.59
2018-12-11T02:42:29.271Z,87.70
2018-12-11T02:43:29.261Z,87.01
2018-12-11T02:44:29.248Z,86.76
2018-12-11T02:45:29.238Z,86.76
2018-12-11T02:46:29.229Z,87.28
2018-12-11T02:47:29.220Z,86.70
2018-12-11T02:48:29.209Z,86.66
2018-12-11T02:49:29.197Z,86.35
2018-12-11T02:50:29.186Z,86.45
2018-12-11T02:51:29.176Z,86.35
2018-12-11T02:52:29.166Z,85.94
2018-12-11T02:53:29.154Z,86.25
2018-12-11T02:54:29.143Z,86.25
2018-12-11T02:55:29.133Z,86.25
2018-12-11T02:56:29.122Z,85.73
2018-12-11T02:57:29.111Z,85.73
2018-12-11T02:58:29.104Z,85.83
2018-12-11T02:59:29.092Z,85.83
2018-12-11T03:00:29.081Z,85.73
2018-12-11T03:01:29.067Z,85.94
2018-12-11T03:02:29.057Z,86.15
2018-12-11T03:03:29.045Z,86.15
2018-12-11T03:04:29.036Z,85.42
2018-12-11T03:05:29.027Z,85.31
2018-12-11T03:06:29.014Z,85.42
2018-12-11T03:07:29.005Z,85.31
2018-12-11T03:08:28.992Z,85.21
2018-12-11T03:09:28.981Z,85.52
2018-12-11T03:10:28.979Z,85.11
2018-12-11T03:11:28.962Z,85.11
2018-12-11T03:12:28.951Z,85.11
2018-12-11T03:13:28.938Z,85.42
2018-12-11T03:14:28.928Z,86.04
2018-12-11T03:15:28.918Z,85.31
2018-12-11T03:16:28.908Z,85.42
2018-12-11T03:17:28.895Z,85.42
2018-12-11T03:18:28.887Z,85.31
2018-12-11T03:19:28.875Z,84.90
2018-12-11T03:20:28.864Z,85.21
2018-12-11T03:21:28.855Z,85.52
2018-12-11T03:22:28.848Z,84.44
2018-12-11T03:23:28.833Z,84.69
2018-12-11T03:24:28.821Z,85.00
2018-12-11T03:25:28.813Z,84.59
2018-12-11T03:26:28.827Z,84.90
2018-12-11T03:27:28.791Z,84.48
2018-12-11T03:28:28.781Z,84.90
2018-12-11T03:29:28.770Z,85.00
2018-12-11T03:30:28.758Z,85.17
2018-12-11T03:31:28.747Z,84.38
2018-12-11T03:32:28.736Z,84.80
2018-12-11T03:33:28.727Z,84.48
2018-12-11T03:34:28.715Z,84.48
2018-12-11T03:35:28.704Z,84.65
2018-12-11T03:36:28.691Z,85.31
2018-12-11T03:37:28.683Z,84.69
2018-12-11T03:38:28.675Z,84.80
2018-12-11T03:39:28.662Z,84.69
2018-12-11T03:40:28.651Z,84.34
2018-12-11T03:41:28.638Z,84.23
2018-12-11T03:42:28.629Z,83.51
2018-12-11T03:43:28.617Z,83.93
2018-12-11T03:44:28.607Z,84.34
2018-12-11T03:45:28.597Z,83.41
2018-12-11T03:46:28.586Z,83.41
2018-12-11T03:47:28.574Z,83.62
2018-12-11T03:48:28.564Z,84.55
2018-12-11T03:49:28.552Z,83.41
2018-12-11T03:50:28.546Z,83.20
2018-12-11T03:51:28.536Z,83.62
2018-12-11T03:52:28.521Z,83.51
2018-12-11T03:53:28.510Z,83.93
2018-12-11T03:54:28.500Z,84.23
2018-12-11T03:55:28.489Z,84.13
2018-12-11T03:56:28.482Z,84.75
2018-12-11T03:57:28.468Z,84.03
2018-12-11T03:58:28.457Z,84.69
2018-12-11T03:59:28.451Z,84.44
2018-12-11T04:00:28.434Z,84.03
2018-12-11T04:01:28.425Z,84.59
2018-12-11T04:02:28.414Z,84.59
2018-12-11T04:03:28.403Z,84.80
2018-12-11T04:04:28.397Z,84.44
2018-12-11T04:05:28.381Z,84.90
2018-12-11T04:06:28.371Z,84.90
2018-12-11T04:07:28.361Z,85.31
2018-12-11T04:08:28.350Z,85.00
2018-12-11T04:09:28.339Z,85.21
2018-12-11T04:10:28.327Z,85.11
2018-12-11T04:11:28.318Z,84.80
2018-12-11T04:12:28.307Z,84.48
2018-12-11T04:13:28.299Z,84.65
2018-12-11T04:14:28.289Z,84.75
2018-12-11T04:15:28.273Z,84.90
2018-12-11T04:16:28.262Z,84.90
2018-12-11T04:17:28.255Z,85.31
2018-12-11T04:18:28.245Z,86.25
2018-12-11T04:19:28.233Z,86.15
2018-12-11T04:20:28.222Z,86.15
2018-12-11T04:21:28.210Z,86.15
2018-12-11T04:22:28.200Z,86.15
2018-12-11T04:23:28.190Z,86.04
2018-12-11T04:24:28.179Z,86.25
2018-12-11T04:25:28.167Z,86.04
2018-12-11T04:26:28.158Z,85.94
2018-12-11T04:27:28.146Z,86.66
2018-12-11T04:28:28.136Z,87.80
2018-12-11T04:29:28.126Z,87.59
2018-12-11T04:30:28.113Z,87.49
2018-12-11T04:31:28.104Z,88.42
2018-12-11T04:32:28.092Z,89.09
2018-12-11T04:33:28.081Z,88.78
2018-12-11T04:34:28.077Z,89.19
2018-12-11T04:35:28.061Z,89.09
2018-12-11T04:36:28.056Z,89.19
2018-12-11T04:37:28.038Z,89.50
2018-12-11T04:38:28.026Z,88.67
2018-12-11T04:39:33.628Z,89.29
2018-12-11T04:40:29.006Z,89.81
2018-12-11T04:41:27.997Z,90.33
2018-12-11T04:42:27.985Z,89.61
2018-12-11T04:43:27.976Z,90.12
2018-12-11T04:44:27.964Z,90.02
2018-12-11T04:45:27.952Z,90.12
2018-12-11T04:46:27.942Z,90.33
2018-12-11T04:47:27.931Z,90.75
2018-12-11T04:48:27.920Z,90.44
2018-12-11T04:49:27.910Z,90.33
2018-12-11T04:50:27.900Z,91.06
2018-12-11T04:51:27.888Z,89.81
2018-12-11T04:52:27.878Z,90.02
2018-12-11T04:53:27.867Z,91.06
2018-12-11T04:54:27.857Z,90.85
2018-12-11T04:55:27.845Z,90.89
2018-12-11T04:56:27.834Z,90.27
2018-12-11T04:57:27.824Z,90.23
2018-12-11T04:58:27.814Z,90.85
2018-12-11T04:59:27.802Z,91.06
2018-12-11T05:00:27.793Z,91.10
2018-12-11T05:01:27.781Z,91.52
2018-12-11T05:02:27.771Z,92.03
2018-12-11T05:03:27.759Z,91.62
2018-12-11T05:04:27.750Z,91.62
2018-12-11T05:05:27.738Z,91.52
2018-12-11T05:06:27.733Z,91.83
2018-12-11T05:07:27.717Z,91.83
2018-12-11T05:08:27.707Z,91.00
2018-12-11T05:09:27.695Z,91.72
2018-12-11T05:10:27.684Z,91.62
2018-12-11T05:11:27.675Z,92.03
2018-12-11T05:12:27.662Z,92.03
2018-12-11T05:13:27.653Z,92.14
2018-12-11T05:14:27.641Z,92.45
2018-12-11T05:15:27.631Z,91.93
2018-12-11T05:16:27.621Z,91.93
2018-12-11T05:17:27.609Z,91.62
2018-12-11T05:18:27.599Z,90.89
2018-12-11T05:19:27.591Z,91.31
2018-12-11T05:20:27.578Z,91.52
2018-12-11T05:21:27.569Z,91.41
2018-12-11T05:22:27.557Z,91.72
2018-12-11T05:23:27.545Z,91.00
2018-12-11T05:24:27.535Z,91.00
2018-12-11T05:25:27.524Z,91.00
2018-12-11T05:26:27.516Z,90.79
2018-12-11T05:27:27.504Z,91.20
2018-12-11T05:28:27.493Z,91.00
2018-12-11T05:29:27.480Z,91.10
2018-12-11T05:30:27.471Z,90.37
2018-12-11T05:31:27.461Z,90.58
2018-12-11T05:32:27.450Z,90.58
2018-12-11T05:33:27.439Z,90.79
2018-12-11T05:34:27.427Z,91.10
2018-12-11T05:35:27.417Z,90.89
2018-12-11T05:36:27.407Z,90.89
2018-12-11T05:37:27.397Z,89.96
2018-12-11T05:38:27.391Z,90.06
2018-12-11T05:39:27.375Z,90.37
2018-12-11T05:40:27.363Z,89.86
2018-12-11T05:41:27.352Z,90.37
2018-12-11T05:42:27.388Z,90.48
2018-12-11T05:43:27.332Z,90.48
2018-12-11T05:44:27.322Z,90.69
2018-12-11T05:45:27.310Z,89.96
2018-12-11T05:46:27.299Z,91.10
2018-12-11T05:47:27.291Z,91.00
2018-12-11T05:48:27.279Z,90.17
2018-12-11T05:49:27.267Z,91.20
2018-12-11T05:50:27.257Z,91.03
2018-12-11T05:51:27.259Z,90.83
2018-12-11T05:52:27.235Z,90.10
2018-12-11T05:53:27.224Z,90.27
2018-12-11T05:54:27.215Z,90.48
2018-12-11T05:55:27.203Z,90.62
2018-12-11T05:56:27.193Z,89.65
2018-12-11T05:57:27.182Z,90.27
2018-12-11T05:58:27.174Z,90.00
2018-12-11T05:59:27.163Z,90.83
2018-12-11T06:00:27.149Z,91.24
2018-12-11T06:01:27.156Z,90.93
2018-12-11T06:02:27.127Z,91.03
2018-12-11T06:03:27.119Z,90.72
2018-12-11T06:04:27.108Z,90.72
2018-12-11T06:05:27.101Z,91.14
2018-12-11T06:06:27.085Z,90.93
2018-12-11T06:07:27.074Z,90.83
2018-12-11T06:08:27.068Z,91.80
2018-12-11T06:09:27.053Z,91.24
2018-12-11T06:10:27.042Z,91.76
2018-12-11T06:11:27.036Z,92.43
2018-12-11T06:12:27.021Z,92.69
2018-12-11T06:13:27.011Z,93.26
2018-12-11T06:14:27.004Z,92.63
2018-12-11T06:15:26.989Z,92.94
2018-12-11T06:16:27.060Z,93.37
2018-12-11T06:17:26.969Z,93.72
2018-12-11T06:18:26.958Z,93.30
2018-12-11T06:19:26.946Z,92.57
2018-12-11T06:20:26.936Z,93.72
2018-12-11T06:21:26.925Z,94.03
2018-12-11T06:22:26.916Z,94.03
2018-12-11T06:23:26.904Z,94.07
2018-12-11T06:24:26.894Z,95.11
2018-12-11T06:25:26.882Z,95.42
2018-12-11T06:26:26.870Z,95.47
2018-12-11T06:27:26.860Z,95.99
2018-12-11T06:28:26.849Z,95.42
2018-12-11T06:29:26.841Z,95.78
2018-12-11T06:30:26.828Z,95.21
2018-12-11T06:31:26.819Z,95.26
2018-12-11T06:32:26.808Z,94.95
2018-12-11T06:33:26.796Z,95.11
2018-12-11T06:34:26.784Z,95.32
2018-12-11T06:35:26.775Z,95.53
2018-12-11T06:36:26.766Z,95.84
2018-12-11T06:37:26.753Z,94.70
2018-12-11T06:38:26.746Z,94.59
2018-12-11T06:39:26.731Z,94.28
2018-12-11T06:40:26.723Z,94.80
2018-12-11T06:41:26.709Z,95.11
2018-12-11T06:42:26.698Z,95.38
2018-12-11T06:43:26.689Z,95.42
2018-12-11T06:44:26.679Z,95.42
2018-12-11T06:45:26.820Z,95.53
2018-12-11T06:46:26.658Z,95.94
2018-12-11T06:47:26.647Z,95.94
2018-12-11T06:48:26.634Z,96.04
2018-12-11T06:49:26.626Z,96.15
2018-12-11T06:50:26.614Z,96.25
2018-12-11T06:51:26.604Z,96.36
2018-12-11T06:52:26.592Z,96.15
2018-12-11T06:53:26.581Z,95.53
2018-12-11T06:54:26.572Z,95.84
2018-12-11T06:55:26.559Z,95.94
2018-12-11T06:56:26.551Z,95.73
2018-12-11T06:57:26.540Z,95.90
2018-12-11T06:58:26.531Z,95.94
2018-12-11T06:59:26.520Z,95.59
2018-12-11T07:00:26.507Z,95.69
2018-12-11T07:01:26.502Z,95.59
2018-12-11T07:02:26.487Z,96.25
2018-12-11T07:03:26.475Z,96.52
2018-12-11T07:04:26.503Z,96.31
2018-12-11T07:05:26.454Z,96.21
2018-12-11T07:06:26.448Z,96.31
2018-12-11T07:07:26.432Z,96.11
2018-12-11T07:08:26.423Z,96.21
2018-12-11T07:09:26.411Z,96.11
2018-12-11T07:10:26.401Z,96.21
2018-12-11T07:11:26.389Z,96.42
2018-12-11T07:12:26.379Z,96.42
2018-12-11T07:13:26.369Z,95.79
2018-12-11T07:14:26.357Z,96.00
2018-12-11T07:15:26.346Z,95.69
2018-12-11T07:16:26.336Z,95.28
2018-12-11T07:17:26.325Z,95.75
2018-12-11T07:18:26.317Z,95.44
2018-12-11T07:19:26.307Z,94.65
2018-12-11T07:20:26.293Z,94.51
2018-12-11T07:21:26.352Z,94.61
2018-12-11T07:22:26.273Z,94.51
2018-12-11T07:23:26.261Z,94.61
2018-12-11T07:24:26.250Z,94.03
2018-12-11T07:25:26.240Z,94.51
2018-12-11T07:26:26.228Z,94.40
2018-12-11T07:27:26.220Z,94.40
2018-12-11T07:28:26.207Z,93.78
2018-12-11T07:29:26.200Z,94.40
2018-12-11T07:30:26.185Z,93.57
2018-12-11T07:31:26.181Z,93.37
2018-12-11T07:32:26.167Z,93.16
2018-12-11T07:33:26.156Z,93.57
2018-12-11T07:34:26.147Z,93.68
2018-12-11T07:35:26.139Z,93.57
2018-12-11T07:36:26.124Z,93.47
2018-12-11T07:37:26.113Z,93.37
2018-12-11T07:38:26.102Z,92.63
2018-12-11T07:39:26.091Z,92.32
2018-12-11T07:40:26.083Z,92.43
2018-12-11T07:41:26.076Z,91.66
2018-12-11T07:42:26.060Z,91.24
2018-12-11T07:43:26.048Z,91.70
2018-12-11T07:44:26.036Z,92.38
2018-12-11T07:45:26.029Z,92.49
2018-12-11T07:46:26.016Z,92.01
2018-12-11T07:47:26.006Z,91.76
2018-12-11T07:48:25.994Z,92.38
2018-12-11T07:49:26.012Z,91.45
2018-12-11T07:50:25.972Z,90.93
2018-12-11T07:51:25.961Z,91.08
2018-12-11T07:52:25.950Z,90.41
2018-12-11T07:53:25.940Z,90.93
2018-12-11T07:54:25.930Z,91.14
2018-12-11T07:55:25.918Z,90.62
2018-12-11T07:56:25.907Z,90.56
2018-12-11T07:57:25.898Z,91.14
2018-12-11T07:58:25.886Z,90.97
2018-12-11T07:59:25.875Z,90.93
2018-12-11T08:00:25.866Z,91.08
2018-12-11T08:01:25.854Z,91.08
2018-12-11T08:02:25.845Z,90.45
2018-12-11T08:03:25.834Z,90.04
2018-12-11T08:04:25.822Z,90.45
2018-12-11T08:05:25.812Z,89.31
2018-12-11T08:06:25.801Z,88.79
2018-12-11T08:07:25.792Z,88.07
2018-12-11T08:08:25.779Z,87.86
2018-12-11T08:09:25.769Z,88.07
2018-12-11T08:10:25.759Z,87.96
2018-12-11T08:11:25.750Z,86.19
2018-12-11T08:12:25.736Z,86.19
2018-12-11T08:13:25.725Z,84.95
2018-12-11T08:14:25.715Z,85.68
2018-12-11T08:15:25.704Z,85.36
2018-12-11T08:16:25.703Z,86.09
2018-12-11T08:17:25.687Z,85.99
2018-12-11T08:18:25.672Z,86.61
2018-12-11T08:19:25.662Z,86.61
2018-12-11T08:20:25.653Z,86.93
2018-12-11T08:21:25.640Z,87.03
2018-12-11T08:22:25.629Z,86.51
2018-12-11T08:23:25.618Z,86.51
2018-12-11T08:24:25.608Z,85.99
2018-12-11T08:25:25.597Z,86.51
2018-12-11T08:26:25.586Z,86.93
2018-12-11T08:27:25.577Z,86.82
2018-12-11T08:28:25.565Z,87.86
2018-12-11T08:29:25.554Z,88.07
2018-12-11T08:30:25.543Z,89.52
2018-12-11T08:31:25.533Z,89.94
2018-12-11T08:32:25.909Z,90.45
2018-12-11T08:33:25.513Z,90.29
2018-12-11T08:34:25.505Z,89.94
2018-12-11T08:35:25.497Z,90.81
2018-12-11T08:36:25.479Z,91.02
2018-12-11T08:37:25.468Z,90.70
2018-12-11T08:38:25.459Z,90.97
2018-12-11T08:39:25.451Z,91.53
2018-12-11T08:40:25.437Z,91.85
2018-12-11T08:41:25.426Z,91.22
2018-12-11T08:42:25.416Z,91.22
2018-12-11T08:43:25.405Z,92.05
2018-12-11T08:44:25.397Z,92.26
2018-12-11T08:45:25.383Z,92.61
2018-12-11T08:46:25.373Z,92.51
2018-12-11T08:47:25.363Z,92.26
2018-12-11T08:48:25.354Z,92.36
2018-12-11T08:49:25.341Z,91.64
2018-12-11T08:50:25.332Z,92.57
2018-12-11T08:51:25.320Z,92.36
2018-12-11T08:52:25.309Z,92.47
2018-12-11T08:53:25.298Z,93.16
2018-12-11T08:54:25.289Z,92.68
2018-12-11T08:55:25.278Z,92.57
2018-12-11T08:56:25.266Z,93.47
2018-12-11T08:57:25.256Z,92.32
2018-12-11T08:58:25.247Z,92.63
2018-12-11T08:59:25.234Z,92.74
2018-12-11T09:00:25.224Z,92.11
2018-12-11T09:01:25.213Z,91.91
2018-12-11T09:02:25.202Z,91.60
2018-12-11T09:03:25.194Z,91.18
2018-12-11T09:04:25.182Z,91.60
2018-12-11T09:05:25.169Z,92.43
2018-12-11T09:06:25.159Z,92.47
2018-12-11T09:07:25.148Z,92.57
2018-12-11T09:08:25.138Z,92.53
2018-12-11T09:09:25.127Z,93.30
2018-12-11T09:10:25.116Z,93.41
2018-12-11T09:11:25.105Z,93.51
2018-12-11T09:12:25.095Z,93.26
2018-12-11T09:13:25.084Z,92.68
2018-12-11T09:14:25.079Z,93.51
2018-12-11T09:15:25.063Z,93.20
2018-12-11T09:16:25.052Z,93.20
2018-12-11T09:17:25.041Z,93.51
2018-12-11T09:18:25.031Z,93.20
2018-12-11T09:19:25.027Z,92.99
2018-12-11T09:20:25.010Z,93.41
2018-12-11T09:21:24.999Z,93.30
2018-12-11T09:22:24.988Z,93.72
2018-12-11T09:23:24.977Z,93.41
2018-12-11T09:24:24.966Z,93.62
2018-12-11T09:25:24.962Z,93.93
2018-12-11T09:26:24.948Z,94.20
2018-12-11T09:27:24.935Z,94.24
2018-12-11T09:28:24.926Z,94.76
2018-12-11T09:29:24.914Z,94.03
2018-12-11T09:30:24.903Z,93.82
2018-12-11T09:31:24.893Z,93.62
2018-12-11T09:32:24.882Z,94.24
2018-12-11T09:33:24.875Z,94.40
2018-12-11T09:34:24.861Z,94.51
2018-12-11T09:35:24.853Z,94.20
2018-12-11T09:36:24.839Z,94.51
2018-12-11T09:37:24.829Z,94.40
2018-12-11T09:38:24.818Z,93.88
2018-12-11T09:39:24.808Z,93.47
2018-12-11T09:40:24.796Z,93.47
2018-12-11T09:41:24.787Z,93.72
2018-12-11T09:42:27.961Z,93.47
2018-12-11T09:43:24.766Z,93.37
2018-12-11T09:44:24.755Z,93.82
2018-12-11T09:45:24.745Z,93.68
2018-12-11T09:46:24.734Z,93.68
2018-12-11T09:47:24.720Z,93.82
2018-12-11T09:48:24.719Z,93.62
2018-12-11T09:49:24.703Z,93.47
2018-12-11T09:50:24.689Z,93.47
2018-12-11T09:51:24.682Z,93.99
2018-12-11T09:52:24.668Z,93.68
2018-12-11T09:53:24.658Z,93.47
2018-12-11T09:54:24.645Z,93.57
2018-12-11T09:55:24.635Z,93.47
2018-12-11T09:56:24.646Z,93.99
2018-12-11T09:57:24.615Z,93.37
2018-12-11T09:58:24.603Z,93.37
2018-12-11T09:59:24.597Z,93.16
2018-12-11T10:00:27.290Z,92.63
2018-12-11T10:01:24.570Z,93.47
2018-12-11T10:02:24.562Z,93.68
2018-12-11T10:03:24.550Z,93.37
2018-12-11T10:04:24.539Z,93.57
2018-12-11T10:05:24.527Z,93.26
2018-12-11T10:06:24.518Z,93.37
2018-12-11T10:07:24.509Z,93.47
2018-12-11T10:08:24.496Z,93.47
2018-12-11T10:09:24.491Z,93.37
2018-12-11T10:10:24.476Z,93.57
2018-12-11T10:11:24.471Z,93.47
2018-12-11T10:12:24.454Z,93.47
2018-12-11T10:13:24.442Z,93.37
2018-12-11T10:14:24.435Z,93.88
2018-12-11T10:15:24.423Z,94.09
2018-12-11T10:16:24.411Z,93.57
2018-12-11T10:17:24.400Z,93.47
2018-12-11T10:18:24.391Z,93.68
2018-12-11T10:19:24.380Z,93.47
2018-12-11T10:20:24.369Z,93.88
2018-12-11T10:21:24.359Z,93.47
2018-12-11T10:22:24.347Z,93.68
2018-12-11T10:23:24.337Z,93.16
2018-12-11T10:24:24.328Z,93.68
2018-12-11T10:25:24.313Z,93.57
2018-12-11T10:26:24.304Z,93.47
2018-12-11T10:27:24.294Z,93.47
2018-12-11T10:28:24.285Z,93.05
2018-12-11T10:29:24.273Z,93.26
2018-12-11T10:30:24.261Z,93.26
2018-12-11T10:31:24.250Z,93.78
2018-12-11T10:32:24.241Z,93.05
2018-12-11T10:33:24.228Z,93.37
2018-12-11T10:34:24.218Z,93.26
2018-12-11T10:35:24.206Z,93.99
2018-12-11T10:36:24.199Z,94.30
2018-12-11T10:37:24.186Z,94.40
2018-12-11T10:38:24.175Z,93.26
2018-12-11T10:39:24.166Z,93.26
2018-12-11T10:40:24.157Z,93.37
2018-12-11T10:41:24.149Z,93.57
2018-12-11T10:42:24.134Z,93.82
2018-12-11T10:43:24.122Z,93.16
2018-12-11T10:44:24.112Z,93.16
2018-12-11T10:45:24.102Z,93.37
2018-12-11T10:46:24.090Z,93.62
2018-12-11T10:47:24.079Z,93.62
2018-12-11T10:48:24.068Z,93.62
2018-12-11T10:49:24.060Z,93.57
2018-12-11T10:50:24.051Z,93.47
2018-12-11T10:51:24.036Z,93.26
2018-12-11T10:52:24.027Z,93.88
2018-12-11T10:53:24.015Z,94.71
2018-12-11T10:54:24.007Z,93.88
2018-12-11T10:55:23.996Z,94.09
2018-12-11T10:56:23.982Z,93.68
2018-12-11T10:57:23.978Z,94.51
2018-12-11T10:58:23.961Z,94.09
2018-12-11T10:59:23.954Z,94.09
2018-12-11T11:00:23.939Z,94.55
2018-12-11T11:01:23.931Z,95.07
2018-12-11T11:02:23.918Z,94.51
2018-12-11T11:03:23.908Z,94.61
2018-12-11T11:04:23.898Z,94.61
2018-12-11T11:05:23.887Z,95.65
2018-12-11T11:06:23.884Z,94.40
2018-12-11T11:07:23.864Z,93.62
2018-12-11T11:08:23.855Z,94.61
2018-12-11T11:09:23.845Z,94.34
2018-12-11T11:10:23.840Z,94.61
2018-12-11T11:11:23.822Z,94.82
2018-12-11T11:12:23.835Z,95.23
2018-12-11T11:13:23.819Z,95.28
2018-12-11T11:14:25.168Z,95.34
2018-12-11T11:15:23.795Z,94.13
2018-12-11T11:16:23.768Z,94.45
2018-12-11T11:17:23.758Z,94.76
2018-12-11T11:18:23.747Z,94.55
2018-12-11T11:19:23.736Z,94.76
2018-12-11T11:20:23.726Z,95.38
2018-12-11T11:21:23.714Z,95.28
2018-12-11T11:22:23.706Z,94.96
2018-12-11T11:23:23.694Z,95.48
2018-12-11T11:24:23.685Z,95.59
2018-12-11T11:25:23.673Z,95.59
2018-12-11T11:26:23.662Z,95.69
2018-12-11T11:27:23.656Z,95.69
2018-12-11T11:28:23.641Z,96.11
2018-12-11T11:29:23.630Z,95.90
2018-12-11T11:30:23.623Z,95.90
2018-12-11T11:31:23.608Z,95.59
2018-12-11T11:32:23.599Z,96.31
2018-12-11T11:33:23.594Z,95.94
2018-12-11T11:34:23.581Z,95.48
2018-12-11T11:35:23.567Z,96.11
2018-12-11T11:36:23.556Z,96.31
2018-12-11T11:37:23.545Z,96.00
2018-12-11T11:38:23.538Z,95.38
2018-12-11T11:39:23.523Z,95.69
2018-12-11T11:40:23.511Z,95.38
2018-12-11T11:41:23.502Z,94.34
2018-12-11T11:42:23.490Z,95.38
2018-12-11T11:43:23.479Z,95.69
2018-12-11T11:44:23.470Z,96.00
2018-12-11T11:45:23.459Z,95.90
2018-12-11T11:46:23.448Z,95.38
2018-12-11T11:47:23.438Z,96.42
2018-12-11T11:48:23.426Z,95.59
2018-12-11T11:49:23.416Z,94.55
2018-12-11T11:50:23.406Z,94.34
2018-12-11T11:51:23.394Z,93.72
2018-12-11T11:52:23.385Z,93.62
2018-12-11T11:53:23.377Z,93.82
2018-12-11T11:54:23.363Z,94.13
2018-12-11T11:55:23.353Z,94.34
2018-12-11T11:56:23.343Z,94.65
2018-12-11T11:57:29.572Z,94.45
2018-12-11T11:58:24.319Z,94.80
2018-12-11T11:59:23.309Z,94.70
2018-12-11T12:00:23.298Z,94.86
2018-12-11T12:01:23.292Z,93.82
2018-12-11T12:02:23.278Z,94.49
2018-12-11T12:03:23.270Z,95.42
2018-12-11T12:04:23.260Z,95.63
2018-12-11T12:05:23.246Z,95.69
2018-12-11T12:06:23.236Z,96.00
2018-12-11T12:07:23.224Z,95.48
2018-12-11T12:08:23.213Z,94.65
2018-12-11T12:09:23.205Z,94.03
2018-12-11T12:10:23.192Z,94.24
2018-12-11T12:11:23.182Z,94.55
2018-12-11T12:12:23.169Z,95.32
2018-12-11T12:13:23.160Z,95.48
2018-12-11T12:14:23.149Z,95.90
2018-12-11T12:15:23.140Z,94.90
2018-12-11T12:16:23.128Z,95.53
2018-12-11T12:17:23.117Z,95.63
2018-12-11T12:18:23.106Z,95.59
2018-12-11T12:19:23.099Z,95.38
2018-12-11T12:20:23.085Z,96.11
2018-12-11T12:21:23.075Z,96.04
2018-12-11T12:22:23.063Z,95.69
2018-12-11T12:23:23.053Z,95.38
2018-12-11T12:24:23.041Z,95.79
2018-12-11T12:25:23.031Z,95.69
2018-12-11T12:26:23.021Z,96.21
2018-12-11T12:27:23.011Z,96.52
2018-12-11T12:28:22.999Z,97.14
2018-12-11T12:29:22.991Z,96.94
2018-12-11T12:30:22.982Z,97.19
2018-12-11T12:31:22.967Z,96.83
2018-12-11T12:32:22.956Z,96.42
2018-12-11T12:33:22.945Z,97.14
2018-12-11T12:34:22.937Z,97.09
2018-12-11T12:35:22.927Z,96.94
2018-12-11T12:36:22.914Z,96.98
2018-12-11T12:37:22.905Z,97.40
2018-12-11T12:38:22.895Z,97.50
2018-12-11T12:39:22.883Z,97.09
2018-12-11T12:40:22.871Z,97.09
2018-12-11T12:41:22.861Z,97.61
2018-12-11T12:42:22.851Z,97.45
2018-12-11T12:43:22.841Z,97.50
2018-12-11T12:44:22.835Z,98.13
2018-12-11T12:45:22.819Z,98.13
2018-12-11T12:46:22.808Z,98.23
2018-12-11T12:47:22.798Z,98.13
2018-12-11T12:48:22.785Z,97.61
2018-12-11T12:49:22.775Z,96.78
2018-12-11T12:50:22.764Z,96.88
2018-12-11T12:51:22.753Z,97.50
2018-12-11T12:52:22.743Z,97.19